Time;durP1;ratioP1;P1;durP2;ratioP2;P2;SDS_P1;SDS_P2;PMS_P1;PMS_P2;Temp;Humidity;BMP_temperature;BMP_pressure;BME280_temperature;BME280_humidity;BME280_pressure;Samples;Min_cycle;Max_cycle;Signal;HPM_P1;HPM_P2
2023/10/21 04:00:28;;;;;;;1.63;0.40;;;15.30;99.90;;;;;;5891668;23;20432;-70
2023/10/21 04:02:56;;;;;;;0.60;0.20;;;15.20;99.90;;;;;;4960747;28;20534;-71
2023/10/21 04:05:24;;;;;;;0.80;0.20;;;15.10;99.90;;;;;;4975171;28;20503;-71
2023/10/21 04:07:52;;;;;;;0.60;0.17;;;15.10;99.90;;;;;;4967831;28;20507;-70
2023/10/21 04:10:20;;;;;;;0.60;0.20;;;15.10;99.90;;;;;;4976938;28;20890;-70
2023/10/21 04:15:38;;;;;;;0.60;0.20;;;;;;;;;;4932301;29;20947;-71
2023/10/21 04:18:09;;;;;;;0.60;0.20;;;15.10;99.90;;;;;;4934875;29;20810;-68
2023/10/21 04:20:38;;;;;;;0.60;0.10;;;15.20;99.90;;;;;;4935252;29;20837;-69
2023/10/21 04:23:05;;;;;;;0.60;0.20;;;15.10;99.90;;;;;;4935542;29;20470;-69
2023/10/21 04:25:33;;;;;;;0.60;0.20;;;15.20;99.90;;;;;;4935427;29;20452;-68
2023/10/21 04:28:01;;;;;;;0.60;0.10;;;15.20;99.90;;;;;;4935197;29;20456;-69
2023/10/21 04:30:30;;;;;;;0.60;0.20;;;;;;;;;;4932046;29;20498;-74
2023/10/21 04:32:59;;;;;;;0.80;0.53;;;15.20;99.90;;;;;;4927856;29;21040;-69
2023/10/21 04:35:28;;;;;;;0.60;0.10;;;;;;;;;;4935085;29;20489;-71
2023/10/21 04:37:56;;;;;;;0.60;0.20;;;15.20;1.00;;;;;;4935067;29;20521;-69
2023/10/21 04:40:24;;;;;;;0.60;0.20;;;15.10;1.00;;;;;;4934705;29;20788;-69
2023/10/21 04:42:52;;;;;;;0.60;0.10;;;;;;;;;;4935054;29;20466;-69
2023/10/21 04:45:20;;;;;;;0.60;0.30;;;15.00;1.00;;;;;;4934976;29;20453;-69
2023/10/21 04:47:48;;;;;;;2.30;0.30;;;14.90;1.00;;;;;;4934841;29;20445;-69
2023/10/21 04:50:17;;;;;;;0.90;0.30;;;14.80;1.00;;;;;;4934681;29;20473;-69
2023/10/21 04:52:45;;;;;;;0.57;0.10;;;;;;;;;;4934594;29;20469;-72
2023/10/21 04:55:14;;;;;;;0.60;0.20;;;;;;;;;;4934756;29;20492;-72
2023/10/21 04:57:42;;;;;;;0.50;0.10;;;;;;;;;;4927017;29;20549;-70
2023/10/21 05:00:11;;;;;;;0.60;0.10;;;14.70;1.00;;;;;;4934683;29;20860;-69
2023/10/21 05:02:39;;;;;;;1.07;0.20;;;14.70;1.00;;;;;;4934544;29;20457;-68
2023/10/21 05:05:08;;;;;;;0.60;0.10;;;14.70;1.00;;;;;;4934496;29;20453;-68
2023/10/21 05:07:37;;;;;;;11.23;6.93;;;14.80;1.00;;;;;;4934361;29;20461;-69
2023/10/21 05:10:06;;;;;;;1.10;0.63;;;14.80;1.00;;;;;;4934669;29;20448;-67
2023/10/21 05:12:34;;;;;;;1.10;0.23;;;14.90;1.00;;;;;;4934480;29;20465;-70
2023/10/21 05:15:02;;;;;;;2.50;2.30;;;15.00;1.00;;;;;;4934427;29;21013;-70
2023/10/21 05:17:30;;;;;;;9.83;7.83;;;14.90;1.00;;;;;;4934773;29;20455;-70
2023/10/21 05:19:58;;;;;;;0.60;0.40;;;14.80;1.00;;;;;;4934425;29;20457;-71
2023/10/21 05:22:26;;;;;;;0.60;0.20;;;14.70;1.00;;;;;;4934572;29;20450;-70
2023/10/21 05:24:55;;;;;;;0.50;0.10;;;14.70;1.00;;;;;;4934098;29;21024;-71
2023/10/21 05:27:23;;;;;;;0.60;0.30;;;14.70;1.00;;;;;;4934274;29;20814;-70
2023/10/21 05:29:51;;;;;;;0.60;0.23;;;14.60;1.00;;;;;;4924105;29;20451;-71
2023/10/21 05:32:19;;;;;;;0.60;0.10;;;14.60;1.00;;;;;;4915602;29;20449;-70
2023/10/21 05:34:47;;;;;;;0.60;0.20;;;14.60;1.00;;;;;;4926167;29;20580;-70
2023/10/21 05:37:15;;;;;;;0.60;0.10;;;14.60;1.00;;;;;;4934451;29;20549;-70
2023/10/21 05:39:43;;;;;;;0.60;0.10;;;14.60;1.00;;;;;;4934097;29;20454;-70
2023/10/21 05:42:12;;;;;;;0.50;0.10;;;14.60;1.00;;;;;;4929300;29;20493;-70
2023/10/21 05:44:41;;;;;;;0.80;0.30;;;;;;;;;;4915100;29;20475;-71
2023/10/21 05:47:16;;;;;;;0.50;0.10;;;14.80;1.00;;;;;;4915140;29;20939;-71
2023/10/21 05:49:44;;;;;;;0.60;0.20;;;14.80;1.00;;;;;;4914983;29;20489;-71
2023/10/21 05:52:12;;;;;;;0.60;0.10;;;14.80;1.00;;;;;;4915156;29;20850;-71
2023/10/21 05:54:42;;;;;;;0.60;0.10;;;14.70;1.00;;;;;;4914977;29;20576;-71
2023/10/21 05:57:10;;;;;;;0.50;0.13;;;14.70;1.00;;;;;;4914851;29;20456;-71
2023/10/21 05:59:39;;;;;;;1.83;0.43;;;14.60;1.00;;;;;;4914960;29;20458;-71
2023/10/21 06:02:07;;;;;;;0.60;0.20;;;;;;;;;;4915288;29;20466;-71
2023/10/21 06:04:35;;;;;;;0.60;0.10;;;14.50;1.00;;;;;;4914881;29;20476;-70
2023/10/21 06:07:03;;;;;;;0.60;0.20;;;14.50;1.00;;;;;;4915352;29;20459;-70
2023/10/21 06:09:31;;;;;;;2.30;1.23;;;;;;;;;;4915377;29;20485;-70
2023/10/21 06:11:59;;;;;;;3.13;0.80;;;14.40;1.00;;;;;;4915038;29;20504;-70
2023/10/21 06:14:28;;;;;;;0.60;0.20;;;14.30;1.00;;;;;;4924335;29;20479;-70
2023/10/21 06:16:58;;;;;;;0.70;0.47;;;14.30;1.00;;;;;;4934355;29;20448;-71
2023/10/21 06:19:26;;;;;;;0.60;0.10;;;14.40;1.00;;;;;;4933957;29;20459;-70
2023/10/21 06:21:55;;;;;;;2.13;0.37;;;14.40;1.00;;;;;;4934153;29;20540;-70
2023/10/21 06:24:22;;;;;;;0.60;0.20;;;14.40;1.00;;;;;;4934036;29;20584;-72
2023/10/21 06:26:50;;;;;;;0.57;0.10;;;14.40;1.00;;;;;;4933835;29;20986;-72
2023/10/21 06:29:18;;;;;;;0.60;0.20;;;14.40;1.00;;;;;;4934081;29;20552;-72
2023/10/21 06:31:46;;;;;;;0.60;0.30;;;14.50;1.00;;;;;;4934316;29;20448;-71
2023/10/21 06:34:15;;;;;;;0.90;0.30;;;14.50;1.00;;;;;;4933850;29;20464;-73
2023/10/21 06:36:44;;;;;;;0.50;0.10;;;;;;;;;;4934271;29;20477;-70
2023/10/21 06:39:12;;;;;;;2.03;1.73;;;;;;;;;;4937625;29;20813;-70
2023/10/21 06:41:41;;;;;;;0.60;0.20;;;14.50;1.00;;;;;;4937948;29;20878;-70
2023/10/21 06:44:08;;;;;;;0.60;0.10;;;14.50;1.00;;;;;;4938186;29;20505;-70
2023/10/21 06:46:36;;;;;;;1.23;0.33;;;14.50;1.00;;;;;;4938119;29;20454;-70
2023/10/21 06:49:04;;;;;;;0.60;0.30;;;14.50;1.00;;;;;;4937725;29;20447;-70
2023/10/21 06:51:34;;;;;;;0.70;0.30;;;14.60;1.00;;;;;;4937578;29;20455;-71
2023/10/21 06:54:01;;;;;;;0.60;0.10;;;14.70;1.00;;;;;;4937684;29;20527;-71
2023/10/21 06:56:29;;;;;;;1.03;0.30;;;14.70;1.00;;;;;;4937613;29;20492;-70
2023/10/21 06:58:57;;;;;;;1.73;0.20;;;14.70;1.00;;;;;;4937305;29;20540;-71
2023/10/21 07:01:26;;;;;;;0.60;0.10;;;;;;;;;;4937590;29;20502;-70
2023/10/21 07:03:54;;;;;;;0.60;0.10;;;14.80;1.00;;;;;;4937292;29;20473;-71
2023/10/21 07:06:22;;;;;;;0.60;0.10;;;14.80;1.00;;;;;;4935558;29;20518;-71
2023/10/21 07:08:51;;;;;;;0.60;0.20;;;14.90;1.00;;;;;;4937090;29;20453;-70
2023/10/21 07:11:19;;;;;;;0.57;0.10;;;14.90;1.00;;;;;;4937846;29;20461;-71
2023/10/21 07:13:47;;;;;;;0.60;0.10;;;14.90;1.00;;;;;;4937704;29;20512;-71
2023/10/21 07:16:15;;;;;;;1.13;0.40;;;14.90;1.00;;;;;;4938024;29;20490;-71
2023/10/21 07:18:42;;;;;;;0.60;0.20;;;14.90;1.00;;;;;;4938173;29;20871;-71
2023/10/21 07:21:10;;;;;;;0.60;0.20;;;14.80;1.00;;;;;;4937105;29;20958;-71
2023/10/21 07:23:38;;;;;;;0.60;0.10;;;14.80;1.00;;;;;;4937703;29;20480;-71
2023/10/21 07:26:08;;;;;;;0.60;0.20;;;14.70;99.90;;;;;;4937258;29;20525;-71
2023/10/21 07:28:36;;;;;;;0.60;0.20;;;14.70;99.90;;;;;;4937172;29;20542;-71
2023/10/21 07:31:03;;;;;;;0.60;0.10;;;14.70;99.90;;;;;;4937264;29;20945;-71
2023/10/21 07:33:32;;;;;;;3.40;2.47;;;;;;;;;;4937066;29;20803;-71
2023/10/21 07:36:00;;;;;;;1.03;0.80;;;14.80;99.90;;;;;;4936909;29;20544;-70
2023/10/21 07:38:27;;;;;;;0.60;0.30;;;14.90;99.90;;;;;;4936977;29;20492;-70
2023/10/21 07:40:56;;;;;;;0.60;0.10;;;14.90;99.90;;;;;;4936904;29;20544;-70
2023/10/21 07:43:25;;;;;;;0.60;0.20;;;15.00;99.90;;;;;;4936758;29;20508;-71
2023/10/21 07:45:53;;;;;;;0.60;0.20;;;15.00;99.90;;;;;;4947321;29;20440;-71
2023/10/21 07:48:21;;;;;;;0.60;0.20;;;15.10;99.90;;;;;;4954995;28;20452;-71
2023/10/21 07:50:53;;;;;;;0.60;0.30;;;15.20;99.90;;;;;;4955379;29;20462;-71
2023/10/21 07:53:21;;;;;;;1.00;0.30;;;;;;;;;;4955742;28;20469;-71
2023/10/21 07:55:49;;;;;;;0.60;0.20;;;15.20;99.90;;;;;;4955915;28;20572;-71
2023/10/21 07:58:17;;;;;;;0.60;0.20;;;15.20;99.90;;;;;;4955663;29;20507;-72
2023/10/21 08:00:47;;;;;;;0.60;0.20;;;15.20;99.90;;;;;;4957487;28;20529;-70
2023/10/21 08:03:15;;;;;;;0.70;0.30;;;;;;;;;;4958236;28;20518;-70
2023/10/21 08:05:43;;;;;;;0.60;0.20;;;15.20;99.90;;;;;;4957727;28;20508;-71
2023/10/21 08:08:11;;;;;;;0.60;0.20;;;15.30;99.90;;;;;;4958863;28;20456;-71
2023/10/21 08:10:39;;;;;;;0.70;0.20;;;15.30;99.90;;;;;;4956582;29;20459;-71
2023/10/21 08:13:07;;;;;;;0.60;0.20;;;15.40;99.90;;;;;;4948250;28;20591;-71
2023/10/21 08:15:35;;;;;;;0.60;0.20;;;15.30;99.90;;;;;;4934198;29;20898;-71
2023/10/21 08:18:05;;;;;;;0.60;0.20;;;15.30;99.90;;;;;;4927609;29;20493;-71
2023/10/21 08:20:33;;;;;;;0.60;0.20;;;15.20;99.90;;;;;;4920569;29;20447;-70
2023/10/21 08:23:01;;;;;;;0.60;0.27;;;15.20;99.90;;;;;;4916183;29;21072;-70
2023/10/21 08:25:28;;;;;;;0.60;0.10;;;15.20;99.90;;;;;;4916676;29;20451;-71
2023/10/21 08:27:56;;;;;;;0.60;0.10;;;15.20;99.90;;;;;;4916695;29;20452;-70
2023/10/21 08:30:24;;;;;;;0.60;0.10;;;15.30;99.90;;;;;;4917183;29;20453;-70
2023/10/21 08:32:52;;;;;;;0.60;0.10;;;15.20;99.90;;;;;;4916780;29;20480;-70
2023/10/21 08:35:22;;;;;;;1.20;0.63;;;15.20;99.90;;;;;;4931787;29;20451;-71
2023/10/21 08:37:50;;;;;;;0.60;0.10;;;15.20;99.90;;;;;;4935670;29;20572;-72
2023/10/21 08:40:18;;;;;;;0.60;0.10;;;;;;;;;;4935989;29;20542;-71
2023/10/21 08:42:47;;;;;;;0.60;0.10;;;15.30;99.90;;;;;;4935742;29;20470;-71
2023/10/21 08:45:29;;;;;;;3.27;1.80;;;;;;;;;;4935743;29;21028;-72
2023/10/21 08:47:58;;;;;;;0.60;0.20;;;15.30;99.90;;;;;;4935144;29;20477;-70
2023/10/21 08:50:28;;;;;;;0.60;0.10;;;15.30;99.90;;;;;;4934970;29;20549;-71
2023/10/21 08:52:58;;;;;;;0.60;0.10;;;15.20;99.90;;;;;;4934879;29;21043;-71
2023/10/21 08:55:26;;;;;;;0.60;0.10;;;15.30;99.90;;;;;;4935656;29;20445;-71
2023/10/21 08:57:55;;;;;;;0.60;0.10;;;15.40;99.90;;;;;;4935175;29;21015;-71
2023/10/21 09:00:23;;;;;;;0.60;0.10;;;15.50;99.90;;;;;;4934712;29;20450;-71
2023/10/21 09:02:51;;;;;;;0.60;0.30;;;15.50;99.90;;;;;;4935240;29;20467;-71
2023/10/21 09:05:19;;;;;;;0.70;0.20;;;15.50;99.90;;;;;;4935846;29;20462;-71
2023/10/21 09:07:50;;;;;;;0.60;0.20;;;15.50;99.90;;;;;;4935053;29;20446;-71
2023/10/21 09:10:18;;;;;;;0.60;0.10;;;15.60;99.90;;;;;;4935247;29;20450;-70
2023/10/21 09:12:47;;;;;;;0.70;0.30;;;15.60;99.90;;;;;;4935275;29;20470;-71
2023/10/21 09:15:15;;;;;;;0.70;0.30;;;;;;;;;;4930416;29;20553;-70
2023/10/21 09:17:45;;;;;;;0.70;0.20;;;15.60;99.90;;;;;;4929957;29;20489;-71
2023/10/21 09:20:15;;;;;;;1.53;0.50;;;15.70;99.90;;;;;;4927205;29;20811;-71
2023/10/21 09:22:45;;;;;;;0.80;0.20;;;15.70;99.90;;;;;;4934538;29;20875;-71
2023/10/21 09:25:16;;;;;;;0.60;0.20;;;15.70;99.90;;;;;;4932871;29;20459;-71
2023/10/21 09:27:44;;;;;;;0.70;0.53;;;15.80;99.90;;;;;;4934931;29;20446;-70
2023/10/21 09:30:16;;;;;;;0.80;0.27;;;15.80;99.90;;;;;;4927067;29;20533;-70
2023/10/21 09:32:46;;;;;;;1.33;0.37;;;15.90;99.90;;;;;;4934320;29;20455;-71
2023/10/21 09:35:21;;;;;;;0.70;0.50;;;16.00;99.90;;;;;;4931462;29;20470;-71
2023/10/21 09:37:49;;;;;;;1.37;0.27;;;16.00;99.90;;;;;;4934474;29;20564;-71
2023/10/21 09:40:21;;;;;;;0.60;0.10;;;16.00;99.90;;;;;;4934202;29;20455;-71
2023/10/21 09:42:52;;;;;;;0.60;0.10;;;13.40;99.90;;;;;;4934698;29;20530;-71
2023/10/21 09:45:21;;;;;;;0.70;0.30;;;16.00;99.90;;;;;;4934423;29;20485;-71
2023/10/21 09:47:55;;;;;;;1.57;0.43;;;16.00;99.90;;;;;;4934153;29;21144;-71
2023/10/21 09:50:25;;;;;;;0.90;0.20;;;16.00;99.90;;;;;;4934282;29;20452;-70
2023/10/21 09:52:56;;;;;;;1.13;0.40;;;16.00;99.90;;;;;;4933952;29;20472;-71
2023/10/21 09:55:31;;;;;;;0.60;0.20;;;16.00;99.90;;;;;;4934378;29;20537;-71
2023/10/21 09:57:59;;;;;;;0.70;0.20;;;16.00;99.90;;;;;;4934160;29;20569;-71
2023/10/21 10:00:27;;;;;;;2.70;0.33;;;16.10;99.90;;;;;;4933349;29;20966;-71
2023/10/21 10:02:59;;;;;;;0.60;0.10;;;16.10;99.90;;;;;;4927799;28;20492;-71
2023/10/21 10:05:27;;;;;;;0.60;0.10;;;16.20;99.90;;;;;;4932947;29;20545;-70
2023/10/21 10:07:58;;;;;;;0.60;0.20;;;16.20;99.90;;;;;;4929235;29;20486;-70
2023/10/21 10:10:28;;;;;;;0.60;0.20;;;16.30;99.90;;;;;;4926140;29;20483;-70
2023/10/21 10:13:00;;;;;;;0.93;0.47;;;16.20;99.90;;;;;;4928573;29;20456;-70
2023/10/21 10:15:33;;;;;;;0.60;0.27;;;16.20;99.90;;;;;;4931876;29;20529;-71
2023/10/21 10:18:03;;;;;;;0.97;0.53;;;16.10;99.90;;;;;;4929449;29;20491;-71
2023/10/21 10:20:32;;;;;;;0.60;0.10;;;16.20;99.90;;;;;;4931068;29;20995;-70
2023/10/21 10:23:02;;;;;;;0.60;0.20;;;16.30;99.90;;;;;;4930854;29;20478;-71
2023/10/21 10:25:36;;;;;;;0.60;0.20;;;16.30;99.90;;;;;;4931020;29;20454;-70
2023/10/21 10:28:07;;;;;;;0.97;0.30;;;16.40;99.90;;;;;;4929681;29;20461;-71
2023/10/21 10:30:38;;;;;;;0.70;0.27;;;16.30;99.90;;;;;;4931032;29;20492;-72
2023/10/21 10:33:12;;;;;;;0.60;0.10;;;16.20;99.90;;;;;;4931029;29;20471;-71
2023/10/21 10:35:46;;;;;;;0.60;0.30;;;16.30;99.90;;;;;;4930437;29;20980;-70
2023/10/21 10:38:25;;;;;;;1.00;0.80;;;16.30;99.90;;;;;;4919162;29;20489;-70
2023/10/21 10:41:05;;;;;;;0.60;0.23;;;16.30;99.90;;;;;;4929119;29;20446;-70
2023/10/21 10:43:34;;;;;;;0.60;0.10;;;16.40;99.90;;;;;;4930460;29;20468;-71
2023/10/21 10:46:02;;;;;;;4.30;2.10;;;16.50;99.90;;;;;;4918573;29;20488;-70
2023/10/21 10:48:30;;;;;;;2.63;1.57;;;16.50;99.90;;;;;;4931286;29;20488;-71
2023/10/21 10:50:58;;;;;;;0.60;0.20;;;16.60;99.90;;;;;;4931790;29;20458;-71
2023/10/21 10:53:27;;;;;;;0.73;0.20;;;;;;;;;;4935142;29;20470;-70
2023/10/21 10:55:56;;;;;;;0.70;0.40;;;16.60;99.90;;;;;;4934564;29;20522;-70
2023/10/21 10:58:26;;;;;;;0.83;0.20;;;16.50;99.90;;;;;;4934971;29;20546;-69
2023/10/21 11:00:54;;;;;;;0.90;0.30;;;16.60;99.90;;;;;;4931665;29;20513;-69
2023/10/21 11:03:27;;;;;;;0.60;0.20;;;16.40;99.90;;;;;;4930745;29;20556;-69
2023/10/21 11:05:56;;;;;;;0.60;0.17;;;16.50;99.90;;;;;;4928492;29;20449;-71
2023/10/21 11:08:25;;;;;;;0.60;0.10;;;16.60;99.90;;;;;;4917512;29;20522;-70
2023/10/21 11:11:03;;;;;;;0.60;0.20;;;16.80;99.90;;;;;;4924670;29;20451;-70
2023/10/21 11:13:32;;;;;;;0.77;0.47;;;17.00;99.90;;;;;;4930199;29;20554;-70
2023/10/21 11:16:04;;;;;;;1.77;0.53;;;16.90;99.90;;;;;;4922147;29;20458;-71
2023/10/21 11:18:33;;;;;;;0.60;0.10;;;16.90;99.90;;;;;;4924758;29;21069;-71
2023/10/21 11:21:01;;;;;;;0.60;0.10;;;;;;;;;;4928181;29;20466;-71
2023/10/21 11:23:30;;;;;;;0.60;0.20;;;16.90;99.90;;;;;;4923070;29;20562;-70
2023/10/21 11:26:00;;;;;;;0.60;0.20;;;16.90;99.90;;;;;;4935970;29;20492;-72
2023/10/21 11:28:30;;;;;;;0.87;0.30;;;17.00;99.90;;;;;;4930620;29;20471;-72
2023/10/21 11:31:01;;;;;;;0.60;0.27;;;16.90;99.90;;;;;;4935135;29;20907;-72
2023/10/21 11:33:29;;;;;;;0.70;0.50;;;16.90;99.90;;;;;;4929788;29;20529;-72
2023/10/21 11:35:57;;;;;;;4.50;1.47;;;16.80;99.90;;;;;;4920829;29;20531;-72
2023/10/21 11:38:28;;;;;;;0.60;0.10;;;16.90;99.90;;;;;;4924485;29;20494;-70
2023/10/21 11:40:58;;;;;;;0.60;0.10;;;18.50;99.90;;;;;;4932115;29;20443;-70
2023/10/21 11:43:28;;;;;;;0.60;0.30;;;17.00;99.90;;;;;;4924089;29;20485;-70
2023/10/21 11:45:57;;;;;;;1.03;0.63;;;17.10;99.90;;;;;;4933320;29;20521;-71
2023/10/21 11:48:27;;;;;;;0.60;0.10;;;17.10;99.90;;;;;;4932444;29;20807;-70
2023/10/21 11:50:55;;;;;;;0.60;0.10;;;17.10;99.90;;;;;;4932161;29;20443;-69
2023/10/21 11:53:23;;;;;;;0.60;0.10;;;17.20;99.90;;;;;;4932195;29;20463;-71
2023/10/21 11:56:51;;;;;;;0.97;0.57;;;17.30;99.90;;;;;;4929951;29;20503;-70
2023/10/21 12:15:49;;;;;;;0.60;0.10;;;17.30;99.90;;;;;;5068300;28;20443;-71
2023/10/21 12:19:06;;;;;;;0.60;0.10;;;17.40;99.90;;;;;;5068374;28;20438;-70
2023/10/21 12:24:46;;;;;;;0.60;0.10;;;17.70;94.60;;;;;;5064328;28;20457;-70
2023/10/21 12:33:08;;;;;;;1.73;0.90;;;17.90;74.30;;;;;;5066923;28;20483;-70
2023/10/21 12:35:48;;;;;;;0.60;0.10;;;18.00;75.30;;;;;;5065219;28;20477;-70
2023/10/21 12:38:24;;;;;;;0.60;0.20;;;18.00;74.90;;;;;;5066771;28;21019;-70
2023/10/21 12:41:12;;;;;;;0.60;0.10;;;18.00;74.30;;;;;;5066943;28;20456;-73
2023/10/21 12:43:39;;;;;;;0.60;0.10;;;18.00;71.50;;;;;;5066591;28;20464;-70
2023/10/21 12:46:17;;;;;;;0.60;0.10;;;18.10;71.20;;;;;;5067061;28;20809;-70
2023/10/21 12:48:47;;;;;;;0.60;0.10;;;18.00;65.80;;;;;;5067402;28;20527;-70
2023/10/21 12:51:16;;;;;;;0.60;0.30;;;18.10;64.20;;;;;;5066964;28;20473;-70
2023/10/21 12:53:46;;;;;;;1.00;0.40;;;18.00;64.50;;;;;;5065651;28;20491;-70
2023/10/21 12:56:15;;;;;;;0.60;0.10;;;;;;;;;;5053846;28;20953;-72
2023/10/21 12:58:43;;;;;;;0.60;0.20;;;18.00;60.70;;;;;;5079537;28;20437;-70
2023/10/21 13:01:12;;;;;;;0.60;0.20;;;18.00;59.40;;;;;;5065697;28;20535;-70
2023/10/21 13:03:41;;;;;;;12.97;10.83;;;;;;;;;;5081481;22;20476;-75
2023/10/21 13:06:10;;;;;;;0.60;0.20;;;17.80;61.30;;;;;;5068539;28;20456;-76
2023/10/21 13:08:38;;;;;;;0.70;0.37;;;18.60;59.70;;;;;;5068422;28;20449;-74
2023/10/21 13:11:08;;;;;;;0.70;0.33;;;17.70;60.70;;;;;;5065936;28;20452;-76
2023/10/21 13:13:37;;;;;;;0.60;0.10;;;17.70;62.00;;;;;;5056580;28;20566;-76
2023/10/21 13:16:07;;;;;;;0.60;0.20;;;17.70;74.40;;;;;;5056023;28;20442;-75
2023/10/21 13:18:35;;;;;;;0.60;0.10;;;17.70;71.70;;;;;;5062823;28;20442;-76
2023/10/21 13:21:06;;;;;;;0.60;0.20;;;17.60;64.30;;;;;;5055273;28;21013;-76
2023/10/21 13:23:35;;;;;;;0.60;0.10;;;17.60;66.80;;;;;;5055060;28;20454;-76
2023/10/21 13:26:06;;;;;;;0.60;0.10;;;17.70;68.00;;;;;;5053816;28;20878;-75
2023/10/21 13:28:36;;;;;;;0.60;0.10;;;17.80;69.40;;;;;;5034579;28;20534;-74
2023/10/21 13:31:05;;;;;;;2.10;0.60;;;18.00;62.40;;;;;;5034529;28;20493;-74
2023/10/21 13:33:35;;;;;;;0.70;0.30;;;18.00;53.40;;;;;;5035786;28;20533;-74
2023/10/21 13:36:05;;;;;;;0.60;0.10;;;18.10;51.30;;;;;;5052899;28;21011;-76
2023/10/21 13:38:34;;;;;;;0.60;0.10;;;18.10;61.70;;;;;;5048245;28;20524;-75
2023/10/21 13:41:04;;;;;;;0.60;0.10;;;18.10;62.10;;;;;;5054275;28;20504;-75
2023/10/21 13:43:32;;;;;;;0.60;0.10;;;18.20;49.50;;;;;;5050667;28;20558;-75
2023/10/21 13:46:05;;;;;;;0.60;0.10;;;18.10;48.90;;;;;;5052341;28;20439;-73
2023/10/21 13:48:34;;;;;;;0.60;0.10;;;18.10;60.30;;;;;;5035027;28;20443;-74
2023/10/21 13:51:06;;;;;;;0.60;0.10;;;18.10;48.10;;;;;;5039773;28;20448;-75
2023/10/21 13:53:35;;;;;;;0.60;0.20;;;18.10;47.20;;;;;;5057550;28;20513;-75
2023/10/21 13:56:06;;;;;;;0.60;0.20;;;18.10;47.50;;;;;;5056861;28;20529;-74
2023/10/21 13:58:34;;;;;;;0.97;0.40;;;18.10;57.80;;;;;;5041461;28;20447;-75
2023/10/21 14:01:09;;;;;;;0.60;0.20;;;18.00;45.50;;;;;;5043795;28;20448;-75
2023/10/21 14:03:37;;;;;;;0.70;0.40;;;18.00;43.40;;;;;;5054914;28;20911;-73
2023/10/21 14:06:06;;;;;;;0.70;0.47;;;18.10;43.20;;;;;;5054098;28;20442;-75
2023/10/21 14:08:34;;;;;;;0.70;0.20;;;18.10;54.20;;;;;;5039166;28;20443;-75
2023/10/21 14:11:06;;;;;;;1.37;1.07;;;18.10;38.80;;;;;;5048388;28;20447;-74
2023/10/21 14:13:34;;;;;;;0.60;0.10;;;18.10;38.80;;;;;;5035870;28;20498;-75
2023/10/21 14:16:05;;;;;;;0.60;0.10;;;18.10;49.50;;;;;;5035840;28;20795;-76
2023/10/21 14:18:34;;;;;;;0.60;0.10;;;18.10;39.00;;;;;;5035962;28;20807;-75
2023/10/21 14:21:02;;;;;;;0.60;0.10;;;18.00;37.10;;;;;;5034975;28;20466;-74
2023/10/21 14:23:30;;;;;;;0.60;0.20;;;18.10;38.10;;;;;;5035302;28;21203;-76
2023/10/21 14:26:00;;;;;;;0.60;0.10;;;18.20;37.10;;;;;;5033554;28;20474;-74
2023/10/21 14:28:30;;;;;;;0.60;0.10;;;18.20;39.50;;;;;;5038074;28;20443;-74
2023/10/21 14:30:59;;;;;;;0.60;0.10;;;18.40;42.20;;;;;;5039304;28;20440;-75
2023/10/21 14:33:30;;;;;;;0.60;0.30;;;18.40;39.60;;;;;;5048949;28;20449;-73
2023/10/21 14:36:05;;;;;;;0.60;0.20;;;18.40;49.10;;;;;;5044149;28;20451;-74
2023/10/21 14:38:35;;;;;;;0.60;0.10;;;18.60;37.80;;;;;;5035057;28;20809;-75
2023/10/21 14:41:03;;;;;;;0.90;0.73;;;18.60;34.60;;;;;;5034781;28;20792;-75
2023/10/21 14:43:31;;;;;;;0.60;0.20;;;18.70;35.30;;;;;;5034343;28;20449;-76
2023/10/21 14:45:59;;;;;;;0.60;0.10;;;18.60;33.90;;;;;;5034229;28;20439;-75
2023/10/21 14:48:29;;;;;;;0.60;0.10;;;18.60;32.50;;;;;;5033596;28;20458;-76
2023/10/21 14:50:56;;;;;;;0.60;0.30;;;18.50;28.90;;;;;;5034151;28;20435;-75
2023/10/21 14:53:24;;;;;;;0.90;0.20;;;18.50;29.80;;;;;;5033209;28;20435;-73
2023/10/21 14:55:53;;;;;;;0.60;0.10;;;18.60;31.30;;;;;;5048990;28;20955;-75
2023/10/21 14:58:23;;;;;;;0.60;0.20;;;18.60;42.60;;;;;;5046751;28;20454;-74
2023/10/21 15:00:52;;;;;;;0.60;0.10;;;19.50;34.70;;;;;;5053536;28;20517;-75
2023/10/21 15:03:21;;;;;;;0.60;0.10;;;18.80;32.10;;;;;;5053328;28;20457;-75
2023/10/21 15:05:52;;;;;;;0.60;0.10;;;18.80;26.50;;;;;;5053407;28;20480;-74
2023/10/21 15:08:23;;;;;;;1.90;0.50;;;18.80;26.10;;;;;;5053914;28;20851;-74
2023/10/21 15:10:51;;;;;;;0.60;0.20;;;18.70;22.20;;;;;;5055541;28;20971;-76
2023/10/21 15:13:22;;;;;;;0.80;0.30;;;18.50;22.00;;;;;;5043157;28;20538;-74
2023/10/21 15:15:51;;;;;;;0.60;0.10;;;18.40;19.40;;;;;;5035964;28;20517;-74
2023/10/21 15:18:19;;;;;;;0.60;0.20;;;18.40;20.10;;;;;;5044653;28;20482;-74
2023/10/21 15:20:47;;;;;;;0.80;0.43;;;18.40;19.10;;;;;;5053080;28;20465;-75
2023/10/21 15:23:17;;;;;;;0.60;0.10;;;18.30;20.10;;;;;;5045723;28;20438;-75
2023/10/21 15:25:45;;;;;;;0.70;0.40;;;;;;;;;;5045192;28;20434;-75
2023/10/21 15:28:14;;;;;;;0.60;0.10;;;18.40;20.00;;;;;;5044284;28;20541;-74
2023/10/21 15:30:42;;;;;;;0.97;0.20;;;18.50;21.70;;;;;;5056561;28;20502;-74
2023/10/21 15:33:10;;;;;;;0.60;0.10;;;18.40;20.50;;;;;;5059557;28;20442;-74
2023/10/21 15:35:38;;;;;;;1.30;0.37;;;15.60;20.20;;;;;;5048615;28;20542;-76
2023/10/21 15:38:07;;;;;;;1.23;1.03;;;18.40;21.70;;;;;;5053507;28;20524;-74
2023/10/21 15:40:38;;;;;;;0.60;0.10;;;18.30;19.80;;;;;;5058008;28;20438;-75
2023/10/21 15:43:06;;;;;;;2.63;0.67;;;18.20;19.80;;;;;;5056741;28;20466;-77
2023/10/21 15:45:34;;;;;;;0.60;0.10;;;18.30;21.30;;;;;;5053491;28;20492;-75
2023/10/21 15:48:02;;;;;;;0.60;0.20;;;18.30;30.90;;;;;;5053861;28;20442;-74
2023/10/21 15:50:30;;;;;;;0.60;0.10;;;18.20;20.70;;;;;;5043882;28;20476;-75
2023/10/21 15:52:58;;;;;;;0.60;0.20;;;18.10;20.70;;;;;;5053110;28;20438;-74
2023/10/21 15:55:26;;;;;;;0.60;0.20;;;18.10;20.60;;;;;;5052228;28;20553;-75
2023/10/21 15:57:56;;;;;;;0.60;0.10;;;18.10;21.10;;;;;;5053967;28;20524;-75
2023/10/21 16:00:23;;;;;;;0.60;0.10;;;18.10;22.50;;;;;;5052958;28;20572;-75
2023/10/21 16:02:51;;;;;;;0.60;0.20;;;18.10;22.60;;;;;;5051927;28;20457;-75
2023/10/21 16:05:19;;;;;;;0.83;0.73;;;18.10;22.30;;;;;;5051438;28;20470;-75
2023/10/21 16:07:47;;;;;;;0.60;0.23;;;18.10;23.10;;;;;;5047279;28;20981;-74
2023/10/21 16:10:18;;;;;;;0.90;0.83;;;18.00;23.50;;;;;;5043900;28;20454;-75
2023/10/21 16:12:47;;;;;;;0.60;0.10;;;18.00;23.70;;;;;;5052612;28;20457;-75
2023/10/21 16:15:16;;;;;;;0.60;0.10;;;18.00;25.80;;;;;;5052372;28;20485;-76
2023/10/21 16:17:46;;;;;;;0.60;0.10;;;17.90;24.90;;;;;;5047488;28;20454;-75
2023/10/21 16:20:14;;;;;;;0.60;0.10;;;17.90;25.30;;;;;;5049191;28;20442;-75
2023/10/21 16:22:44;;;;;;;0.60;0.10;;;;;;;;;;5054581;28;20465;-75
2023/10/21 16:25:15;;;;;;;0.60;0.20;;;17.80;28.00;;;;;;5052593;28;20493;-75
2023/10/21 16:27:43;;;;;;;0.60;0.10;;;17.80;28.60;;;;;;5052471;28;20891;-74
2023/10/21 16:30:11;;;;;;;0.60;0.10;;;17.70;39.20;;;;;;5051572;28;20457;-75
2023/10/21 16:32:41;;;;;;;0.60;0.10;;;17.70;29.20;;;;;;5045080;28;20438;-75
2023/10/21 16:35:10;;;;;;;0.60;0.10;;;17.70;29.80;;;;;;5047146;28;21025;-74
2023/10/21 16:37:38;;;;;;;2.60;2.40;;;17.70;30.10;;;;;;5052186;28;20478;-74
2023/10/21 16:40:07;;;;;;;1.20;0.50;;;17.60;32.40;;;;;;5064964;28;20446;-75
2023/10/21 16:42:36;;;;;;;4.10;1.47;;;17.60;43.20;;;;;;5039423;28;20535;-74
2023/10/21 16:45:05;;;;;;;0.60;0.10;;;17.50;34.60;;;;;;5050755;28;20461;-73
2023/10/21 16:47:33;;;;;;;0.70;0.40;;;17.50;45.80;;;;;;5039841;28;20924;-73
2023/10/21 16:50:03;;;;;;;0.60;0.10;;;;;;;;;;5037828;28;21200;-73
2023/10/21 16:52:31;;;;;;;0.60;0.10;;;17.30;40.80;;;;;;5055075;28;20775;-74
2023/10/21 16:55:00;;;;;;;0.60;0.10;;;17.30;44.00;;;;;;5047446;28;20659;-74
2023/10/21 16:57:28;;;;;;;0.60;0.10;;;17.40;43.90;;;;;;5050231;28;20815;-73
2023/10/21 16:59:56;;;;;;;0.60;0.10;;;17.40;44.00;;;;;;5046791;28;20439;-75
2023/10/21 17:02:24;;;;;;;0.60;0.10;;;17.40;43.10;;;;;;5049373;28;20463;-74
2023/10/21 17:04:52;;;;;;;0.60;0.10;;;;;;;;;;5049989;28;20516;-74
2023/10/21 17:07:21;;;;;;;0.60;0.20;;;17.30;45.50;;;;;;5050825;28;20480;-74
2023/10/21 17:09:51;;;;;;;0.60;0.10;;;17.40;44.90;;;;;;5039878;28;20876;-74
2023/10/21 17:12:20;;;;;;;0.60;0.10;;;17.40;43.10;;;;;;5046986;28;20475;-74
2023/10/21 17:14:47;;;;;;;0.60;0.10;;;17.30;42.60;;;;;;5049737;28;21015;-75
2023/10/21 17:17:15;;;;;;;0.60;0.10;;;17.30;42.90;;;;;;5049650;28;20437;-74
2023/10/21 17:19:43;;;;;;;0.60;0.10;;;17.30;43.70;;;;;;5047893;28;20520;-73
2023/10/21 17:22:11;;;;;;;0.60;0.10;;;17.30;43.10;;;;;;5050832;28;20442;-74
2023/10/21 17:24:43;;;;;;;0.60;0.20;;;17.30;42.90;;;;;;5059791;28;20461;-73
2023/10/21 17:27:11;;;;;;;0.60;0.10;;;17.20;42.90;;;;;;5047439;28;20442;-76
2023/10/21 17:29:39;;;;;;;0.60;0.10;;;17.30;42.30;;;;;;5033834;28;20439;-76
2023/10/21 17:32:07;;;;;;;0.60;0.10;;;17.20;53.30;;;;;;5033570;28;20447;-75
2023/10/21 17:34:36;;;;;;;0.60;0.10;;;17.20;41.80;;;;;;5043807;28;20461;-75
2023/10/21 17:37:04;;;;;;;0.60;0.10;;;17.20;40.90;;;;;;5055958;28;20488;-74